sensor_id;sensor_type;location;lat;lon;timestamp;temperature;humidity
13223;DHT22;6676;45.192;5.722;2023-03-14T00:06:25;11.20;99.90
13223;DHT22;6676;45.192;5.722;2023-03-14T00:09:16;11.40;99.90
13223;DHT22;6676;45.192;5.722;2023-03-14T00:12:08;11.50;99.90
13223;DHT22;6676;45.192;5.722;2023-03-14T00:15:00;11.70;99.90
13223;DHT22;6676;45.192;5.722;2023-03-14T00:17:54;11.80;99.90
13223;DHT22;6676;45.192;5.722;2023-03-14T00:20:55;11.70;99.90
13223;DHT22;6676;45.192;5.722;2023-03-14T00:40:07;11.70;99.90
13223;DHT22;6676;45.192;5.722;2023-03-14T00:45:40;11.70;99.90
13223;DHT22;6676;45.192;5.722;2023-03-14T01:04:23;11.50;99.90
13223;DHT22;6676;45.192;5.722;2023-03-14T01:09:55;11.70;99.90
13223;DHT22;6676;45.192;5.722;2023-03-14T01:15:33;11.80;99.90
13223;DHT22;6676;45.192;5.722;2023-03-14T01:21:19;11.80;99.90
13223;DHT22;6676;45.192;5.722;2023-03-14T01:24:12;11.80;99.90
13223;DHT22;6676;45.192;5.722;2023-03-14T01:27:03;11.80;99.90
13223;DHT22;6676;45.192;5.722;2023-03-14T01:32:42;11.80;99.90
13223;DHT22;6676;45.192;5.722;2023-03-14T01:35:34;11.80;99.90
13223;DHT22;6676;45.192;5.722;2023-03-14T01:38:26;11.80;99.90
13223;DHT22;6676;45.192;5.722;2023-03-14T01:41:21;11.70;99.90
13223;DHT22;6676;45.192;5.722;2023-03-14T01:44:14;11.70;99.90
13223;DHT22;6676;45.192;5.722;2023-03-14T01:47:07;11.70;99.90
13223;DHT22;6676;45.192;5.722;2023-03-14T01:50:01;11.70;99.90
13223;DHT22;6676;45.192;5.722;2023-03-14T01:56:11;11.80;99.90
13223;DHT22;6676;45.192;5.722;2023-03-14T01:59:05;11.70;99.90
13223;DHT22;6676;45.192;5.722;2023-03-14T02:01:58;11.70;99.90
13223;DHT22;6676;45.192;5.722;2023-03-14T02:11:23;11.70;99.90
13223;DHT22;6676;45.192;5.722;2023-03-14T02:14:27;11.70;99.90
13223;DHT22;6676;45.192;5.722;2023-03-14T02:17:21;11.70;99.90
13223;DHT22;6676;45.192;5.722;2023-03-14T02:26:08;11.70;99.90
13223;DHT22;6676;45.192;5.722;2023-03-14T02:29:02;11.70;99.90
13223;DHT22;6676;45.192;5.722;2023-03-14T02:31:53;11.70;99.90
13223;DHT22;6676;45.192;5.722;2023-03-14T02:34:48;11.70;99.90
13223;DHT22;6676;45.192;5.722;2023-03-14T02:37:43;11.70;99.90
13223;DHT22;6676;45.192;5.722;2023-03-14T02:40:35;11.70;99.90
13223;DHT22;6676;45.192;5.722;2023-03-14T02:43:26;11.70;99.90
13223;DHT22;6676;45.192;5.722;2023-03-14T02:46:21;11.70;99.90
13223;DHT22;6676;45.192;5.722;2023-03-14T02:49:14;11.70;99.90
13223;DHT22;6676;45.192;5.722;2023-03-14T02:52:06;11.60;99.90
13223;DHT22;6676;45.192;5.722;2023-03-14T02:55:00;11.60;99.90
13223;DHT22;6676;45.192;5.722;2023-03-14T02:57:54;11.60;99.90
13223;DHT22;6676;45.192;5.722;2023-03-14T03:14:16;11.70;99.90
13223;DHT22;6676;45.192;5.722;2023-03-14T03:17:08;11.50;99.90
13223;DHT22;6676;45.192;5.722;2023-03-14T03:20:00;11.40;99.90
13223;DHT22;6676;45.192;5.722;2023-03-14T03:22:53;11.40;99.90
13223;DHT22;6676;45.192;5.722;2023-03-14T03:25:49;11.30;99.90
13223;DHT22;6676;45.192;5.722;2023-03-14T03:31:21;11.30;99.90
13223;DHT22;6676;45.192;5.722;2023-03-14T03:34:13;11.30;99.90
13223;DHT22;6676;45.192;5.722;2023-03-14T03:37:05;11.40;99.90
13223;DHT22;6676;45.192;5.722;2023-03-14T03:39:59;11.40;99.90
13223;DHT22;6676;45.192;5.722;2023-03-14T03:45:36;11.50;99.90
13223;DHT22;6676;45.192;5.722;2023-03-14T03:48:30;11.40;99.90
13223;DHT22;6676;45.192;5.722;2023-03-14T03:51:23;11.40;99.90
13223;DHT22;6676;45.192;5.722;2023-03-14T03:54:15;11.50;99.90
13223;DHT22;6676;45.192;5.722;2023-03-14T03:57:08;11.50;99.90
13223;DHT22;6676;45.192;5.722;2023-03-14T03:59:59;11.40;99.90
13223;DHT22;6676;45.192;5.722;2023-03-14T04:02:52;11.40;99.90
13223;DHT22;6676;45.192;5.722;2023-03-14T04:05:45;11.40;99.90
13223;DHT22;6676;45.192;5.722;2023-03-14T04:08:36;11.40;99.90
13223;DHT22;6676;45.192;5.722;2023-03-14T04:11:29;11.40;99.90
13223;DHT22;6676;45.192;5.722;2023-03-14T04:14:39;11.50;99.90
13223;DHT22;6676;45.192;5.722;2023-03-14T04:17:32;11.50;99.90
13223;DHT22;6676;45.192;5.722;2023-03-14T04:20:24;11.50;99.90
13223;DHT22;6676;45.192;5.722;2023-03-14T04:25:56;11.30;99.90
13223;DHT22;6676;45.192;5.722;2023-03-14T04:31:29;11.30;99.90
13223;DHT22;6676;45.192;5.722;2023-03-14T04:37:00;11.40;99.90
13223;DHT22;6676;45.192;5.722;2023-03-14T04:42:37;11.40;99.90
13223;DHT22;6676;45.192;5.722;2023-03-14T04:45:30;11.30;99.90
13223;DHT22;6676;45.192;5.722;2023-03-14T04:48:24;11.30;99.90
13223;DHT22;6676;45.192;5.722;2023-03-14T04:51:15;11.30;99.90
13223;DHT22;6676;45.192;5.722;2023-03-14T04:56:51;11.30;99.90
13223;DHT22;6676;45.192;5.722;2023-03-14T05:02:22;11.00;99.90
13223;DHT22;6676;45.192;5.722;2023-03-14T05:05:21;10.90;99.90
13223;DHT22;6676;45.192;5.722;2023-03-14T05:11:02;10.90;99.90
13223;DHT22;6676;45.192;5.722;2023-03-14T05:16:47;10.80;99.90
13223;DHT22;6676;45.192;5.722;2023-03-14T05:22:39;10.70;99.90
13223;DHT22;6676;45.192;5.722;2023-03-14T05:25:35;10.70;99.90
13223;DHT22;6676;45.192;5.722;2023-03-14T05:28:37;10.60;99.90
13223;DHT22;6676;45.192;5.722;2023-03-14T05:34:22;10.70;99.90
13223;DHT22;6676;45.192;5.722;2023-03-14T05:37:14;10.80;99.90
13223;DHT22;6676;45.192;5.722;2023-03-14T05:40:21;10.90;99.90
13223;DHT22;6676;45.192;5.722;2023-03-14T05:43:14;10.90;99.90
13223;DHT22;6676;45.192;5.722;2023-03-14T05:46:16;10.90;99.90
13223;DHT22;6676;45.192;5.722;2023-03-14T05:51:59;10.70;99.90
13223;DHT22;6676;45.192;5.722;2023-03-14T05:54:54;10.60;99.90
13223;DHT22;6676;45.192;5.722;2023-03-14T05:57:47;10.50;99.90
13223;DHT22;6676;45.192;5.722;2023-03-14T06:00:52;10.60;99.90
13223;DHT22;6676;45.192;5.722;2023-03-14T06:03:48;10.50;99.90
13223;DHT22;6676;45.192;5.722;2023-03-14T06:06:40;10.60;99.90
13223;DHT22;6676;45.192;5.722;2023-03-14T06:09:32;10.50;99.90
13223;DHT22;6676;45.192;5.722;2023-03-14T06:12:24;10.50;99.90
13223;DHT22;6676;45.192;5.722;2023-03-14T06:15:16;10.60;99.90
13223;DHT22;6676;45.192;5.722;2023-03-14T06:18:09;10.80;99.90
13223;DHT22;6676;45.192;5.722;2023-03-14T06:21:01;10.90;99.90
13223;DHT22;6676;45.192;5.722;2023-03-14T06:26:36;10.90;99.90
13223;DHT22;6676;45.192;5.722;2023-03-14T06:29:27;10.90;99.90
13223;DHT22;6676;45.192;5.722;2023-03-14T06:32:18;10.90;99.90
13223;DHT22;6676;45.192;5.722;2023-03-14T06:35:11;10.90;99.90
13223;DHT22;6676;45.192;5.722;2023-03-14T06:38:04;10.90;99.90
13223;DHT22;6676;45.192;5.722;2023-03-14T06:40:56;10.80;99.90
13223;DHT22;6676;45.192;5.722;2023-03-14T06:46:30;10.80;99.90
13223;DHT22;6676;45.192;5.722;2023-03-14T06:49:26;10.80;99.90
13223;DHT22;6676;45.192;5.722;2023-03-14T06:52:19;10.80;99.90
13223;DHT22;6676;45.192;5.722;2023-03-14T06:55:11;10.90;99.90
13223;DHT22;6676;45.192;5.722;2023-03-14T06:58:03;10.90;99.90
13223;DHT22;6676;45.192;5.722;2023-03-14T07:00:58;10.90;99.90
13223;DHT22;6676;45.192;5.722;2023-03-14T07:03:52;10.90;99.90
13223;DHT22;6676;45.192;5.722;2023-03-14T07:06:44;10.80;99.90
13223;DHT22;6676;45.192;5.722;2023-03-14T07:09:36;10.90;99.90
13223;DHT22;6676;45.192;5.722;2023-03-14T07:12:28;10.90;99.90
13223;DHT22;6676;45.192;5.722;2023-03-14T07:15:19;10.90;99.90
13223;DHT22;6676;45.192;5.722;2023-03-14T07:20:51;10.90;99.90
13223;DHT22;6676;45.192;5.722;2023-03-14T07:23:43;10.90;99.90
13223;DHT22;6676;45.192;5.722;2023-03-14T07:26:34;10.90;99.90
13223;DHT22;6676;45.192;5.722;2023-03-14T07:29:26;10.70;99.90
13223;DHT22;6676;45.192;5.722;2023-03-14T07:32:18;10.70;99.90
13223;DHT22;6676;45.192;5.722;2023-03-14T07:35:10;10.70;99.90
13223;DHT22;6676;45.192;5.722;2023-03-14T07:38:01;10.80;99.90
13223;DHT22;6676;45.192;5.722;2023-03-14T07:40:59;10.90;99.90
13223;DHT22;6676;45.192;5.722;2023-03-14T07:46:32;10.90;99.90
13223;DHT22;6676;45.192;5.722;2023-03-14T07:49:23;10.90;99.90
13223;DHT22;6676;45.192;5.722;2023-03-14T07:52:15;10.80;99.90
13223;DHT22;6676;45.192;5.722;2023-03-14T07:55:08;10.80;99.90
13223;DHT22;6676;45.192;5.722;2023-03-14T07:58:03;10.70;99.90
13223;DHT22;6676;45.192;5.722;2023-03-14T08:00:54;10.60;99.90
13223;DHT22;6676;45.192;5.722;2023-03-14T08:03:45;10.50;99.90
13223;DHT22;6676;45.192;5.722;2023-03-14T08:06:37;10.40;99.90
13223;DHT22;6676;45.192;5.722;2023-03-14T08:09:28;10.40;99.90
13223;DHT22;6676;45.192;5.722;2023-03-14T08:12:20;10.40;99.90
13223;DHT22;6676;45.192;5.722;2023-03-14T08:15:12;10.50;99.90
13223;DHT22;6676;45.192;5.722;2023-03-14T08:20:43;10.40;99.90
13223;DHT22;6676;45.192;5.722;2023-03-14T08:23:34;10.60;99.90
13223;DHT22;6676;45.192;5.722;2023-03-14T08:26:25;10.50;99.90
13223;DHT22;6676;45.192;5.722;2023-03-14T08:29:16;10.50;99.90
13223;DHT22;6676;45.192;5.722;2023-03-14T08:32:08;10.60;99.90
13223;DHT22;6676;45.192;5.722;2023-03-14T08:34:59;10.60;99.90
13223;DHT22;6676;45.192;5.722;2023-03-14T08:40:31;10.50;99.90
13223;DHT22;6676;45.192;5.722;2023-03-14T08:43:22;10.60;99.90
13223;DHT22;6676;45.192;5.722;2023-03-14T08:46:13;10.50;99.90
13223;DHT22;6676;45.192;5.722;2023-03-14T08:49:04;10.60;99.90
13223;DHT22;6676;45.192;5.722;2023-03-14T08:51:55;10.60;99.90
13223;DHT22;6676;45.192;5.722;2023-03-14T08:54:47;10.60;99.90
13223;DHT22;6676;45.192;5.722;2023-03-14T09:00:20;10.70;99.90
13223;DHT22;6676;45.192;5.722;2023-03-14T09:03:11;10.70;99.90
13223;DHT22;6676;45.192;5.722;2023-03-14T09:06:05;10.60;99.90
13223;DHT22;6676;45.192;5.722;2023-03-14T09:11:36;10.60;99.90
13223;DHT22;6676;45.192;5.722;2023-03-14T09:14:27;10.70;99.90
13223;DHT22;6676;45.192;5.722;2023-03-14T09:17:18;10.80;99.90
13223;DHT22;6676;45.192;5.722;2023-03-14T09:20:11;10.80;99.90
13223;DHT22;6676;45.192;5.722;2023-03-14T09:25:56;10.90;99.90
13223;DHT22;6676;45.192;5.722;2023-03-14T09:28:47;10.90;99.90
13223;DHT22;6676;45.192;5.722;2023-03-14T09:31:38;10.80;99.90
13223;DHT22;6676;45.192;5.722;2023-03-14T09:34:30;10.70;99.90
13223;DHT22;6676;45.192;5.722;2023-03-14T09:37:21;10.60;99.90
13223;DHT22;6676;45.192;5.722;2023-03-14T09:40:15;10.50;99.90
13223;DHT22;6676;45.192;5.722;2023-03-14T09:45:48;10.20;99.90
13223;DHT22;6676;45.192;5.722;2023-03-14T09:48:40;10.20;99.90
13223;DHT22;6676;45.192;5.722;2023-03-14T09:51:32;10.20;99.90
13223;DHT22;6676;45.192;5.722;2023-03-14T09:54:34;10.20;99.90
13223;DHT22;6676;45.192;5.722;2023-03-14T09:57:26;10.20;99.90
13223;DHT22;6676;45.192;5.722;2023-03-14T10:00:20;10.10;99.90
13223;DHT22;6676;45.192;5.722;2023-03-14T10:06:13;10.00;99.90
13223;DHT22;6676;45.192;5.722;2023-03-14T10:11:42;9.90;99.90
13223;DHT22;6676;45.192;5.722;2023-03-14T10:17:14;10.10;99.90
13223;DHT22;6676;45.192;5.722;2023-03-14T10:20:15;10.20;99.90
13223;DHT22;6676;45.192;5.722;2023-03-14T10:25:44;10.40;99.90
13223;DHT22;6676;45.192;5.722;2023-03-14T10:28:38;10.40;99.90
13223;DHT22;6676;45.192;5.722;2023-03-14T10:31:35;10.50;99.90
13223;DHT22;6676;45.192;5.722;2023-03-14T10:34:29;10.50;99.90
13223;DHT22;6676;45.192;5.722;2023-03-14T10:37:24;10.50;99.90
13223;DHT22;6676;45.192;5.722;2023-03-14T10:40:19;10.60;99.90
13223;DHT22;6676;45.192;5.722;2023-03-14T10:43:16;10.70;99.90
13223;DHT22;6676;45.192;5.722;2023-03-14T10:46:12;10.60;99.90
13223;DHT22;6676;45.192;5.722;2023-03-14T10:51:54;10.40;99.90
13223;DHT22;6676;45.192;5.722;2023-03-14T10:54:49;10.40;99.90
13223;DHT22;6676;45.192;5.722;2023-03-14T10:57:40;10.50;99.90
13223;DHT22;6676;45.192;5.722;2023-03-14T11:00:32;10.60;99.90
13223;DHT22;6676;45.192;5.722;2023-03-14T11:03:26;10.70;99.90
13223;DHT22;6676;45.192;5.722;2023-03-14T11:06:22;10.90;99.90
13223;DHT22;6676;45.192;5.722;2023-03-14T11:12:01;11.30;99.90
13223;DHT22;6676;45.192;5.722;2023-03-14T11:14:55;11.50;99.90
13223;DHT22;6676;45.192;5.722;2023-03-14T11:17:52;11.70;99.90
13223;DHT22;6676;45.192;5.722;2023-03-14T11:26:20;12.10;99.90
13223;DHT22;6676;45.192;5.722;2023-03-14T11:31:54;12.30;99.90
13223;DHT22;6676;45.192;5.722;2023-03-14T11:34:50;12.40;99.90
13223;DHT22;6676;45.192;5.722;2023-03-14T11:37:44;12.50;99.90
13223;DHT22;6676;45.192;5.722;2023-03-14T11:40:37;12.50;99.90
13223;DHT22;6676;45.192;5.722;2023-03-14T11:43:30;12.60;99.90
13223;DHT22;6676;45.192;5.722;2023-03-14T11:46:27;12.50;99.90
13223;DHT22;6676;45.192;5.722;2023-03-14T11:49:24;12.70;99.90
13223;DHT22;6676;45.192;5.722;2023-03-14T11:52:19;12.70;99.90
13223;DHT22;6676;45.192;5.722;2023-03-14T11:55:16;12.70;99.90
13223;DHT22;6676;45.192;5.722;2023-03-14T11:58:11;12.80;99.90
13223;DHT22;6676;45.192;5.722;2023-03-14T12:01:06;12.80;99.90
13223;DHT22;6676;45.192;5.722;2023-03-14T12:04:01;12.70;99.90
13223;DHT22;6676;45.192;5.722;2023-03-14T12:06:53;12.70;99.90
13223;DHT22;6676;45.192;5.722;2023-03-14T12:09:46;12.70;99.90
13223;DHT22;6676;45.192;5.722;2023-03-14T12:12:38;12.70;99.90
13223;DHT22;6676;45.192;5.722;2023-03-14T12:18:20;12.60;99.90
13223;DHT22;6676;45.192;5.722;2023-03-14T12:21:12;12.50;99.90
13223;DHT22;6676;45.192;5.722;2023-03-14T12:24:04;12.30;99.90
13223;DHT22;6676;45.192;5.722;2023-03-14T12:26:56;12.20;99.90
13223;DHT22;6676;45.192;5.722;2023-03-14T12:30:01;12.40;99.90
13223;DHT22;6676;45.192;5.722;2023-03-14T12:33:20;12.50;99.90
13223;DHT22;6676;45.192;5.722;2023-03-14T12:36:31;12.40;99.90
13223;DHT22;6676;45.192;5.722;2023-03-14T12:39:33;12.40;99.90
13223;DHT22;6676;45.192;5.722;2023-03-14T12:42:38;12.70;99.90
13223;DHT22;6676;45.192;5.722;2023-03-14T12:45:33;13.00;99.90
13223;DHT22;6676;45.192;5.722;2023-03-14T12:48:26;13.10;99.90
13223;DHT22;6676;45.192;5.722;2023-03-14T12:51:19;13.10;99.90
13223;DHT22;6676;45.192;5.722;2023-03-14T12:54:27;13.50;99.90
13223;DHT22;6676;45.192;5.722;2023-03-14T12:57:26;13.90;99.90
13223;DHT22;6676;45.192;5.722;2023-03-14T13:00:20;14.10;99.90
13223;DHT22;6676;45.192;5.722;2023-03-14T13:03:19;14.20;99.90
13223;DHT22;6676;45.192;5.722;2023-03-14T13:06:12;14.00;99.90
13223;DHT22;6676;45.192;5.722;2023-03-14T13:12:38;14.30;99.90
13223;DHT22;6676;45.192;5.722;2023-03-14T13:15:32;14.50;99.90
13223;DHT22;6676;45.192;5.722;2023-03-14T13:18:28;14.30;99.90
13223;DHT22;6676;45.192;5.722;2023-03-14T13:21:22;14.20;99.90
13223;DHT22;6676;45.192;5.722;2023-03-14T13:24:23;14.00;99.90
13223;DHT22;6676;45.192;5.722;2023-03-14T13:27:18;13.90;99.90
13223;DHT22;6676;45.192;5.722;2023-03-14T13:30:18;13.60;99.90
13223;DHT22;6676;45.192;5.722;2023-03-14T13:33:14;13.50;99.90
13223;DHT22;6676;45.192;5.722;2023-03-14T13:36:10;13.50;99.90
13223;DHT22;6676;45.192;5.722;2023-03-14T13:39:01;13.50;99.90
13223;DHT22;6676;45.192;5.722;2023-03-14T13:41:55;13.50;99.90
13223;DHT22;6676;45.192;5.722;2023-03-14T13:44:47;13.10;99.90
13223;DHT22;6676;45.192;5.722;2023-03-14T13:47:39;13.00;99.90
13223;DHT22;6676;45.192;5.722;2023-03-14T13:50:31;12.90;99.90
13223;DHT22;6676;45.192;5.722;2023-03-14T13:53:23;12.90;99.90
13223;DHT22;6676;45.192;5.722;2023-03-14T13:56:14;12.80;99.90
13223;DHT22;6676;45.192;5.722;2023-03-14T13:59:20;12.60;99.90
13223;DHT22;6676;45.192;5.722;2023-03-14T14:02:13;12.40;99.90
13223;DHT22;6676;45.192;5.722;2023-03-14T14:05:09;12.40;99.90
13223;DHT22;6676;45.192;5.722;2023-03-14T14:08:03;12.40;99.90
13223;DHT22;6676;45.192;5.722;2023-03-14T14:10:58;12.50;99.90
13223;DHT22;6676;45.192;5.722;2023-03-14T14:13:50;12.50;99.90
13223;DHT22;6676;45.192;5.722;2023-03-14T14:16:43;12.50;99.90
13223;DHT22;6676;45.192;5.722;2023-03-14T14:19:35;12.40;99.90
13223;DHT22;6676;45.192;5.722;2023-03-14T14:22:28;12.20;99.90
13223;DHT22;6676;45.192;5.722;2023-03-14T14:25:19;12.30;99.90
13223;DHT22;6676;45.192;5.722;2023-03-14T14:28:23;12.20;99.90
13223;DHT22;6676;45.192;5.722;2023-03-14T14:31:21;12.10;99.90
13223;DHT22;6676;45.192;5.722;2023-03-14T14:34:21;12.00;99.90
13223;DHT22;6676;45.192;5.722;2023-03-14T14:37:25;12.10;99.90
13223;DHT22;6676;45.192;5.722;2023-03-14T14:40:20;12.20;99.90
13223;DHT22;6676;45.192;5.722;2023-03-14T14:43:15;12.40;99.90
13223;DHT22;6676;45.192;5.722;2023-03-14T14:46:09;12.50;99.90
13223;DHT22;6676;45.192;5.722;2023-03-14T14:49:09;12.50;99.90
13223;DHT22;6676;45.192;5.722;2023-03-14T14:52:04;12.60;99.90
13223;DHT22;6676;45.192;5.722;2023-03-14T14:54:58;12.50;99.90
13223;DHT22;6676;45.192;5.722;2023-03-14T14:57:52;12.60;99.90
13223;DHT22;6676;45.192;5.722;2023-03-14T15:00:50;12.80;99.90
13223;DHT22;6676;45.192;5.722;2023-03-14T15:03:44;12.90;99.90
13223;DHT22;6676;45.192;5.722;2023-03-14T15:06:37;12.60;99.90
13223;DHT22;6676;45.192;5.722;2023-03-14T15:09:28;12.40;99.90
13223;DHT22;6676;45.192;5.722;2023-03-14T15:12:20;12.20;99.90
13223;DHT22;6676;45.192;5.722;2023-03-14T15:18:17;11.50;99.90
13223;DHT22;6676;45.192;5.722;2023-03-14T15:21:10;10.90;99.90
13223;DHT22;6676;45.192;5.722;2023-03-14T15:24:01;10.20;99.90
13223;DHT22;6676;45.192;5.722;2023-03-14T15:26:52;9.90;99.90
13223;DHT22;6676;45.192;5.722;2023-03-14T15:29:43;9.90;99.90
13223;DHT22;6676;45.192;5.722;2023-03-14T15:32:35;10.00;99.90
13223;DHT22;6676;45.192;5.722;2023-03-14T15:35:26;11.40;99.90
13223;DHT22;6676;45.192;5.722;2023-03-14T15:38:20;13.80;99.90
13223;DHT22;6676;45.192;5.722;2023-03-14T15:41:12;15.20;99.90
13223;DHT22;6676;45.192;5.722;2023-03-14T15:44:05;16.30;99.90
13223;DHT22;6676;45.192;5.722;2023-03-14T15:46:56;17.20;99.90
13223;DHT22;6676;45.192;5.722;2023-03-14T15:49:48;17.10;99.90
13223;DHT22;6676;45.192;5.722;2023-03-14T15:52:39;17.60;99.90
13223;DHT22;6676;45.192;5.722;2023-03-14T15:55:31;17.60;99.90
13223;DHT22;6676;45.192;5.722;2023-03-14T15:58:22;17.90;99.90
13223;DHT22;6676;45.192;5.722;2023-03-14T16:01:14;17.90;99.90
13223;DHT22;6676;45.192;5.722;2023-03-14T16:04:06;16.90;99.90
13223;DHT22;6676;45.192;5.722;2023-03-14T16:06:57;15.50;99.90
13223;DHT22;6676;45.192;5.722;2023-03-14T16:09:49;14.40;99.90
13223;DHT22;6676;45.192;5.722;2023-03-14T16:12:40;13.60;99.90
13223;DHT22;6676;45.192;5.722;2023-03-14T16:15:32;12.90;99.90
13223;DHT22;6676;45.192;5.722;2023-03-14T16:18:24;12.50;99.90
13223;DHT22;6676;45.192;5.722;2023-03-14T16:21:17;12.40;99.90
13223;DHT22;6676;45.192;5.722;2023-03-14T16:24:09;12.50;99.90
13223;DHT22;6676;45.192;5.722;2023-03-14T16:27:00;13.20;99.90
13223;DHT22;6676;45.192;5.722;2023-03-14T16:29:51;13.20;99.90
13223;DHT22;6676;45.192;5.722;2023-03-14T16:32:45;13.10;99.90
13223;DHT22;6676;45.192;5.722;2023-03-14T16:35:37;12.90;99.90
13223;DHT22;6676;45.192;5.722;2023-03-14T16:38:29;12.60;99.90
13223;DHT22;6676;45.192;5.722;2023-03-14T16:41:21;12.30;99.90
13223;DHT22;6676;45.192;5.722;2023-03-14T16:44:13;12.00;99.90
13223;DHT22;6676;45.192;5.722;2023-03-14T16:47:04;11.70;99.90
13223;DHT22;6676;45.192;5.722;2023-03-14T16:49:57;11.60;99.90
13223;DHT22;6676;45.192;5.722;2023-03-14T16:52:50;11.50;99.90
13223;DHT22;6676;45.192;5.722;2023-03-14T16:55:42;11.40;99.90
13223;DHT22;6676;45.192;5.722;2023-03-14T16:58:33;11.40;99.90
13223;DHT22;6676;45.192;5.722;2023-03-14T17:01:24;11.30;99.90
13223;DHT22;6676;45.192;5.722;2023-03-14T17:04:15;11.30;99.90
13223;DHT22;6676;45.192;5.722;2023-03-14T17:07:07;11.20;99.90
13223;DHT22;6676;45.192;5.722;2023-03-14T17:09:59;11.10;99.90
13223;DHT22;6676;45.192;5.722;2023-03-14T17:12:50;10.90;99.90
13223;DHT22;6676;45.192;5.722;2023-03-14T17:15:45;10.90;99.90
13223;DHT22;6676;45.192;5.722;2023-03-14T17:18:36;10.90;99.90
13223;DHT22;6676;45.192;5.722;2023-03-14T17:21:28;11.00;99.90
13223;DHT22;6676;45.192;5.722;2023-03-14T17:24:19;10.80;99.90
13223;DHT22;6676;45.192;5.722;2023-03-14T17:27:10;10.70;99.90
13223;DHT22;6676;45.192;5.722;2023-03-14T17:30:06;10.60;99.90
13223;DHT22;6676;45.192;5.722;2023-03-14T17:32:57;10.60;99.90
13223;DHT22;6676;45.192;5.722;2023-03-14T17:35:48;10.60;99.90
13223;DHT22;6676;45.192;5.722;2023-03-14T17:38:40;10.50;99.90
13223;DHT22;6676;45.192;5.722;2023-03-14T17:41:31;10.50;99.90
13223;DHT22;6676;45.192;5.722;2023-03-14T17:44:22;10.40;99.90
13223;DHT22;6676;45.192;5.722;2023-03-14T17:47:14;10.40;99.90
13223;DHT22;6676;45.192;5.722;2023-03-14T17:50:07;10.30;99.90
13223;DHT22;6676;45.192;5.722;2023-03-14T17:52:58;10.20;99.90
13223;DHT22;6676;45.192;5.722;2023-03-14T17:55:50;10.10;99.90
13223;DHT22;6676;45.192;5.722;2023-03-14T17:58:41;10.10;99.90
13223;DHT22;6676;45.192;5.722;2023-03-14T18:01:33;10.10;99.90
13223;DHT22;6676;45.192;5.722;2023-03-14T18:04:25;10.10;99.90
13223;DHT22;6676;45.192;5.722;2023-03-14T18:07:16;10.00;99.90
13223;DHT22;6676;45.192;5.722;2023-03-14T18:10:11;9.90;99.90
13223;DHT22;6676;45.192;5.722;2023-03-14T18:13:03;9.90;99.90
13223;DHT22;6676;45.192;5.722;2023-03-14T18:15:55;9.90;99.90
13223;DHT22;6676;45.192;5.722;2023-03-14T18:18:47;9.80;99.90
13223;DHT22;6676;45.192;5.722;2023-03-14T18:21:39;9.80;99.90
13223;DHT22;6676;45.192;5.722;2023-03-14T18:24:30;9.70;99.90
13223;DHT22;6676;45.192;5.722;2023-03-14T18:27:22;9.70;99.90
13223;DHT22;6676;45.192;5.722;2023-03-14T18:30:15;9.70;99.90
13223;DHT22;6676;45.192;5.722;2023-03-14T18:33:08;9.70;99.90
13223;DHT22;6676;45.192;5.722;2023-03-14T18:36:01;9.60;99.90
13223;DHT22;6676;45.192;5.722;2023-03-14T18:38:53;9.60;99.90
13223;DHT22;6676;45.192;5.722;2023-03-14T18:41:45;9.50;99.90
13223;DHT22;6676;45.192;5.722;2023-03-14T18:44:37;9.40;99.90
13223;DHT22;6676;45.192;5.722;2023-03-14T18:47:29;9.40;99.90
13223;DHT22;6676;45.192;5.722;2023-03-14T18:50:22;9.30;99.90
13223;DHT22;6676;45.192;5.722;2023-03-14T18:53:13;9.30;99.90
13223;DHT22;6676;45.192;5.722;2023-03-14T18:56:06;9.30;99.90
13223;DHT22;6676;45.192;5.722;2023-03-14T18:59:01;9.20;99.90
13223;DHT22;6676;45.192;5.722;2023-03-14T19:01:52;9.20;99.90
13223;DHT22;6676;45.192;5.722;2023-03-14T19:04:44;9.20;99.90
13223;DHT22;6676;45.192;5.722;2023-03-14T19:07:37;9.10;99.90
13223;DHT22;6676;45.192;5.722;2023-03-14T19:10:28;9.10;99.90
13223;DHT22;6676;45.192;5.722;2023-03-14T19:13:21;9.10;99.90
13223;DHT22;6676;45.192;5.722;2023-03-14T19:16:15;9.20;99.90
13223;DHT22;6676;45.192;5.722;2023-03-14T19:19:06;9.20;99.90
13223;DHT22;6676;45.192;5.722;2023-03-14T19:21:58;9.10;99.90
13223;DHT22;6676;45.192;5.722;2023-03-14T19:24:49;9.10;99.90
13223;DHT22;6676;45.192;5.722;2023-03-14T19:27:41;9.10;99.90
13223;DHT22;6676;45.192;5.722;2023-03-14T19:30:33;9.10;99.90
13223;DHT22;6676;45.192;5.722;2023-03-14T19:33:27;9.10;99.90
13223;DHT22;6676;45.192;5.722;2023-03-14T19:39:05;9.10;99.90
13223;DHT22;6676;45.192;5.722;2023-03-14T19:41:57;9.10;99.90
13223;DHT22;6676;45.192;5.722;2023-03-14T19:44:48;9.20;99.90
13223;DHT22;6676;45.192;5.722;2023-03-14T19:50:24;9.10;99.90
13223;DHT22;6676;45.192;5.722;2023-03-14T19:53:16;9.10;99.90
13223;DHT22;6676;45.192;5.722;2023-03-14T19:58:47;9.10;99.90
13223;DHT22;6676;45.192;5.722;2023-03-14T20:01:39;9.10;99.90
13223;DHT22;6676;45.192;5.722;2023-03-14T20:04:30;9.10;99.90
13223;DHT22;6676;45.192;5.722;2023-03-14T20:07:23;9.20;99.90
13223;DHT22;6676;45.192;5.722;2023-03-14T20:10:20;9.30;99.90
13223;DHT22;6676;45.192;5.722;2023-03-14T20:15:57;9.20;99.90
13223;DHT22;6676;45.192;5.722;2023-03-14T20:21:29;9.00;99.90
13223;DHT22;6676;45.192;5.722;2023-03-14T20:24:20;9.00;99.90
13223;DHT22;6676;45.192;5.722;2023-03-14T20:27:12;9.10;99.90
13223;DHT22;6676;45.192;5.722;2023-03-14T20:30:06;8.90;99.90
13223;DHT22;6676;45.192;5.722;2023-03-14T20:35:41;8.70;99.90
13223;DHT22;6676;45.192;5.722;2023-03-14T20:41:13;8.70;99.90
13223;DHT22;6676;45.192;5.722;2023-03-14T20:44:05;8.70;99.90
13223;DHT22;6676;45.192;5.722;2023-03-14T20:46:58;8.70;99.90
13223;DHT22;6676;45.192;5.722;2023-03-14T20:52:31;8.80;99.90
13223;DHT22;6676;45.192;5.722;2023-03-14T20:58:32;8.80;99.90
13223;DHT22;6676;45.192;5.722;2023-03-14T21:04:15;8.90;99.90
13223;DHT22;6676;45.192;5.722;2023-03-14T21:07:07;8.90;99.90
13223;DHT22;6676;45.192;5.722;2023-03-14T21:09:59;8.90;99.90
13223;DHT22;6676;45.192;5.722;2023-03-14T21:15:30;8.90;99.90
13223;DHT22;6676;45.192;5.722;2023-03-14T21:18:22;8.90;99.90
13223;DHT22;6676;45.192;5.722;2023-03-14T21:23:59;9.00;99.90
13223;DHT22;6676;45.192;5.722;2023-03-14T21:29:38;9.00;99.90
13223;DHT22;6676;45.192;5.722;2023-03-14T21:32:29;9.10;99.90
13223;DHT22;6676;45.192;5.722;2023-03-14T21:35:21;9.20;99.90
13223;DHT22;6676;45.192;5.722;2023-03-14T21:38:13;9.10;99.90
13223;DHT22;6676;45.192;5.722;2023-03-14T21:43:46;9.00;99.90
13223;DHT22;6676;45.192;5.722;2023-03-14T21:46:38;9.00;99.90
13223;DHT22;6676;45.192;5.722;2023-03-14T21:52:13;8.80;99.90
13223;DHT22;6676;45.192;5.722;2023-03-14T21:55:06;8.90;99.90
13223;DHT22;6676;45.192;5.722;2023-03-14T21:57:58;8.80;99.90
13223;DHT22;6676;45.192;5.722;2023-03-14T22:03:37;8.80;99.90
13223;DHT22;6676;45.192;5.722;2023-03-14T22:06:30;8.80;99.90
13223;DHT22;6676;45.192;5.722;2023-03-14T22:09:23;8.90;99.90
13223;DHT22;6676;45.192;5.722;2023-03-14T22:12:15;8.80;99.90
13223;DHT22;6676;45.192;5.722;2023-03-14T22:15:10;8.80;99.90
13223;DHT22;6676;45.192;5.722;2023-03-14T22:26:05;8.90;99.90